sensor_id;sensor_type;location;lat;lon;timestamp;temperature;humidity
74101;DHT22;62462;52.530;21.682;2022-09-09T00:01:10;18.70;43.40
74101;DHT22;62462;52.530;21.682;2022-09-09T00:03:54;18.70;43.50
74101;DHT22;62462;52.530;21.682;2022-09-09T00:06:31;18.70;43.40
74101;DHT22;62462;52.530;21.682;2022-09-09T00:09:22;18.70;43.70
74101;DHT22;62462;52.530;21.682;2022-09-09T00:11:58;18.60;43.80
74101;DHT22;62462;52.530;21.682;2022-09-09T00:17:02;18.50;44.10
74101;DHT22;62462;52.530;21.682;2022-09-09T00:19:38;18.50;44.00
74101;DHT22;62462;52.530;21.682;2022-09-09T00:24:49;18.50;44.50
74101;DHT22;62462;52.530;21.682;2022-09-09T00:27:48;18.50;44.20
74101;DHT22;62462;52.530;21.682;2022-09-09T00:30:26;18.40;44.60
74101;DHT22;62462;52.530;21.682;2022-09-09T00:32:59;18.50;44.40
74101;DHT22;62462;52.530;21.682;2022-09-09T00:37:55;18.40;44.20
74101;DHT22;62462;52.530;21.682;2022-09-09T00:40:32;18.40;44.70
74101;DHT22;62462;52.530;21.682;2022-09-09T00:49:15;18.40;45.50
74101;DHT22;62462;52.530;21.682;2022-09-09T00:59:32;18.00;49.60
74101;DHT22;62462;52.530;21.682;2022-09-09T01:02:07;17.80;50.50
74101;DHT22;62462;52.530;21.682;2022-09-09T01:04:38;17.80;51.10
74101;DHT22;62462;52.530;21.682;2022-09-09T01:07:14;17.70;51.40
74101;DHT22;62462;52.530;21.682;2022-09-09T01:14:49;17.50;53.70
74101;DHT22;62462;52.530;21.682;2022-09-09T01:17:34;17.30;54.80
74101;DHT22;62462;52.530;21.682;2022-09-09T01:28:29;16.90;57.30
74101;DHT22;62462;52.530;21.682;2022-09-09T01:30:56;16.80;58.30
74101;DHT22;62462;52.530;21.682;2022-09-09T01:33:22;16.80;58.80
74101;DHT22;62462;52.530;21.682;2022-09-09T01:36:15;16.70;59.10
74101;DHT22;62462;52.530;21.682;2022-09-09T01:38:43;16.60;59.60
74101;DHT22;62462;52.530;21.682;2022-09-09T01:41:09;16.60;59.40
74101;DHT22;62462;52.530;21.682;2022-09-09T01:43:34;16.60;60.00
74101;DHT22;62462;52.530;21.682;2022-09-09T01:46:01;16.60;60.10
74101;DHT22;62462;52.530;21.682;2022-09-09T01:48:29;16.60;60.60
74101;DHT22;62462;52.530;21.682;2022-09-09T01:50:55;16.60;60.00
74101;DHT22;62462;52.530;21.682;2022-09-09T01:53:22;16.60;60.70
74101;DHT22;62462;52.530;21.682;2022-09-09T01:56:28;16.60;60.80
74101;DHT22;62462;52.530;21.682;2022-09-09T02:04:03;16.50;62.50
74101;DHT22;62462;52.530;21.682;2022-09-09T02:06:38;16.40;62.40
74101;DHT22;62462;52.530;21.682;2022-09-09T02:09:07;16.40;62.60
74101;DHT22;62462;52.530;21.682;2022-09-09T02:11:34;16.40;62.60
74101;DHT22;62462;52.530;21.682;2022-09-09T02:14:18;16.40;63.10
74101;DHT22;62462;52.530;21.682;2022-09-09T02:17:01;16.30;63.30
74101;DHT22;62462;52.530;21.682;2022-09-09T02:19:36;16.30;63.60
74101;DHT22;62462;52.530;21.682;2022-09-09T02:22:03;16.30;63.60
74101;DHT22;62462;52.530;21.682;2022-09-09T02:24:39;16.20;63.10
74101;DHT22;62462;52.530;21.682;2022-09-09T02:27:07;16.20;63.70
74101;DHT22;62462;52.530;21.682;2022-09-09T02:29:38;16.20;63.90
74101;DHT22;62462;52.530;21.682;2022-09-09T02:32:09;16.20;64.30
74101;DHT22;62462;52.530;21.682;2022-09-09T02:34:43;16.10;64.50
74101;DHT22;62462;52.530;21.682;2022-09-09T02:37:10;16.00;65.90
74101;DHT22;62462;52.530;21.682;2022-09-09T02:39:37;15.90;66.20
74101;DHT22;62462;52.530;21.682;2022-09-09T02:42:04;15.90;66.20
74101;DHT22;62462;52.530;21.682;2022-09-09T02:44:30;15.80;66.60
74101;DHT22;62462;52.530;21.682;2022-09-09T02:52:21;15.70;67.90
74101;DHT22;62462;52.530;21.682;2022-09-09T02:54:56;15.60;67.70
74101;DHT22;62462;52.530;21.682;2022-09-09T02:57:27;15.60;67.70
74101;DHT22;62462;52.530;21.682;2022-09-09T02:59:57;15.70;67.70
74101;DHT22;62462;52.530;21.682;2022-09-09T03:02:23;15.60;67.90
74101;DHT22;62462;52.530;21.682;2022-09-09T03:04:51;15.70;67.40
74101;DHT22;62462;52.530;21.682;2022-09-09T03:07:21;15.70;67.30
74101;DHT22;62462;52.530;21.682;2022-09-09T03:09:47;15.70;67.10
74101;DHT22;62462;52.530;21.682;2022-09-09T03:12:13;15.80;67.20
74101;DHT22;62462;52.530;21.682;2022-09-09T03:14:39;15.70;67.40
74101;DHT22;62462;52.530;21.682;2022-09-09T03:17:05;15.70;67.30
74101;DHT22;62462;52.530;21.682;2022-09-09T03:19:31;15.70;67.50
74101;DHT22;62462;52.530;21.682;2022-09-09T03:21:57;15.70;67.30
74101;DHT22;62462;52.530;21.682;2022-09-09T03:24:24;15.70;67.50
74101;DHT22;62462;52.530;21.682;2022-09-09T03:26:50;15.70;67.40
74101;DHT22;62462;52.530;21.682;2022-09-09T03:29:16;15.70;68.20
74101;DHT22;62462;52.530;21.682;2022-09-09T03:31:42;15.60;68.00
74101;DHT22;62462;52.530;21.682;2022-09-09T03:34:08;15.60;68.20
74101;DHT22;62462;52.530;21.682;2022-09-09T03:36:34;15.50;68.80
74101;DHT22;62462;52.530;21.682;2022-09-09T03:39:00;15.40;68.80
74101;DHT22;62462;52.530;21.682;2022-09-09T03:41:28;15.40;68.90
74101;DHT22;62462;52.530;21.682;2022-09-09T03:43:54;15.40;69.00
74101;DHT22;62462;52.530;21.682;2022-09-09T03:46:21;15.40;69.40
74101;DHT22;62462;52.530;21.682;2022-09-09T03:48:48;15.30;69.60
74101;DHT22;62462;52.530;21.682;2022-09-09T03:51:15;15.30;69.70
74101;DHT22;62462;52.530;21.682;2022-09-09T03:53:42;15.30;69.90
74101;DHT22;62462;52.530;21.682;2022-09-09T03:56:09;15.30;69.10
74101;DHT22;62462;52.530;21.682;2022-09-09T03:58:36;15.40;69.70
74101;DHT22;62462;52.530;21.682;2022-09-09T04:01:04;15.40;69.40
74101;DHT22;62462;52.530;21.682;2022-09-09T04:03:31;15.40;69.30
74101;DHT22;62462;52.530;21.682;2022-09-09T04:05:59;15.40;69.50
74101;DHT22;62462;52.530;21.682;2022-09-09T04:08:25;15.40;69.20
74101;DHT22;62462;52.530;21.682;2022-09-09T04:10:52;15.40;69.80
74101;DHT22;62462;52.530;21.682;2022-09-09T04:13:18;15.40;70.10
74101;DHT22;62462;52.530;21.682;2022-09-09T04:15:51;15.30;69.80
74101;DHT22;62462;52.530;21.682;2022-09-09T04:18:18;15.30;69.70
74101;DHT22;62462;52.530;21.682;2022-09-09T04:20:47;15.40;69.60
74101;DHT22;62462;52.530;21.682;2022-09-09T04:23:13;15.40;69.80
74101;DHT22;62462;52.530;21.682;2022-09-09T04:25:50;15.40;69.90
74101;DHT22;62462;52.530;21.682;2022-09-09T04:28:18;15.40;69.20
74101;DHT22;62462;52.530;21.682;2022-09-09T04:30:46;15.40;69.20
74101;DHT22;62462;52.530;21.682;2022-09-09T04:33:13;15.40;69.80
74101;DHT22;62462;52.530;21.682;2022-09-09T04:35:39;15.40;69.70
74101;DHT22;62462;52.530;21.682;2022-09-09T04:38:09;15.40;69.70
74101;DHT22;62462;52.530;21.682;2022-09-09T04:40:35;15.30;69.70
74101;DHT22;62462;52.530;21.682;2022-09-09T04:43:02;15.30;69.80
74101;DHT22;62462;52.530;21.682;2022-09-09T04:45:30;15.30;69.90
74101;DHT22;62462;52.530;21.682;2022-09-09T04:47:56;15.30;70.20
74101;DHT22;62462;52.530;21.682;2022-09-09T04:50:22;15.30;70.10
74101;DHT22;62462;52.530;21.682;2022-09-09T04:52:48;15.20;69.90
74101;DHT22;62462;52.530;21.682;2022-09-09T04:55:14;15.20;70.40
74101;DHT22;62462;52.530;21.682;2022-09-09T04:57:40;15.20;70.10
74101;DHT22;62462;52.530;21.682;2022-09-09T05:00:06;15.20;70.20
74101;DHT22;62462;52.530;21.682;2022-09-09T05:02:32;15.20;70.70
74101;DHT22;62462;52.530;21.682;2022-09-09T05:04:58;15.20;70.10
74101;DHT22;62462;52.530;21.682;2022-09-09T05:07:26;15.20;70.10
74101;DHT22;62462;52.530;21.682;2022-09-09T05:09:53;15.20;70.20
74101;DHT22;62462;52.530;21.682;2022-09-09T05:12:19;15.30;70.00
74101;DHT22;62462;52.530;21.682;2022-09-09T05:14:44;15.30;70.10
74101;DHT22;62462;52.530;21.682;2022-09-09T05:17:10;15.20;70.40
74101;DHT22;62462;52.530;21.682;2022-09-09T05:19:36;15.20;70.40
74101;DHT22;62462;52.530;21.682;2022-09-09T05:22:03;15.20;70.60
74101;DHT22;62462;52.530;21.682;2022-09-09T05:24:29;15.20;70.60
74101;DHT22;62462;52.530;21.682;2022-09-09T05:26:58;15.20;71.00
74101;DHT22;62462;52.530;21.682;2022-09-09T05:29:27;15.10;71.20
74101;DHT22;62462;52.530;21.682;2022-09-09T05:31:53;15.00;71.80
74101;DHT22;62462;52.530;21.682;2022-09-09T05:34:18;15.00;71.50
74101;DHT22;62462;52.530;21.682;2022-09-09T05:36:44;15.00;72.20
74101;DHT22;62462;52.530;21.682;2022-09-09T05:39:10;15.10;71.30
74101;DHT22;62462;52.530;21.682;2022-09-09T05:41:37;15.10;71.20
74101;DHT22;62462;52.530;21.682;2022-09-09T05:44:03;15.20;70.90
74101;DHT22;62462;52.530;21.682;2022-09-09T05:46:29;15.10;71.60
74101;DHT22;62462;52.530;21.682;2022-09-09T05:48:55;15.10;71.10
74101;DHT22;62462;52.530;21.682;2022-09-09T05:51:26;15.10;70.90
74101;DHT22;62462;52.530;21.682;2022-09-09T05:53:53;15.20;71.20
74101;DHT22;62462;52.530;21.682;2022-09-09T05:56:25;15.20;71.00
74101;DHT22;62462;52.530;21.682;2022-09-09T05:58:52;15.20;70.90
74101;DHT22;62462;52.530;21.682;2022-09-09T06:01:21;15.20;71.00
74101;DHT22;62462;52.530;21.682;2022-09-09T06:03:49;15.20;70.80
74101;DHT22;62462;52.530;21.682;2022-09-09T06:06:17;15.20;71.00
74101;DHT22;62462;52.530;21.682;2022-09-09T06:08:44;15.20;71.10
74101;DHT22;62462;52.530;21.682;2022-09-09T06:11:16;15.20;70.80
74101;DHT22;62462;52.530;21.682;2022-09-09T06:13:42;15.20;71.30
74101;DHT22;62462;52.530;21.682;2022-09-09T06:16:09;15.20;70.90
74101;DHT22;62462;52.530;21.682;2022-09-09T06:18:37;15.20;71.00
74101;DHT22;62462;52.530;21.682;2022-09-09T06:21:05;15.30;71.00
74101;DHT22;62462;52.530;21.682;2022-09-09T06:23:32;15.30;70.90
74101;DHT22;62462;52.530;21.682;2022-09-09T06:28:35;15.20;71.00
74101;DHT22;62462;52.530;21.682;2022-09-09T06:31:12;15.10;71.60
74101;DHT22;62462;52.530;21.682;2022-09-09T06:33:40;15.10;71.40
74101;DHT22;62462;52.530;21.682;2022-09-09T06:36:12;15.00;71.60
74101;DHT22;62462;52.530;21.682;2022-09-09T06:38:39;15.10;71.60
74101;DHT22;62462;52.530;21.682;2022-09-09T06:41:05;15.10;71.40
74101;DHT22;62462;52.530;21.682;2022-09-09T06:43:31;15.10;71.70
74101;DHT22;62462;52.530;21.682;2022-09-09T06:46:02;15.10;71.60
74101;DHT22;62462;52.530;21.682;2022-09-09T06:48:29;15.10;71.80
74101;DHT22;62462;52.530;21.682;2022-09-09T06:53:32;15.10;72.00
74101;DHT22;62462;52.530;21.682;2022-09-09T06:56:02;15.20;72.00
74101;DHT22;62462;52.530;21.682;2022-09-09T06:58:28;15.10;71.60
74101;DHT22;62462;52.530;21.682;2022-09-09T07:01:06;15.10;72.10
74101;DHT22;62462;52.530;21.682;2022-09-09T07:03:33;15.00;72.00
74101;DHT22;62462;52.530;21.682;2022-09-09T07:05:59;15.00;72.20
74101;DHT22;62462;52.530;21.682;2022-09-09T07:08:25;15.00;72.40
74101;DHT22;62462;52.530;21.682;2022-09-09T07:10:52;15.10;72.30
74101;DHT22;62462;52.530;21.682;2022-09-09T07:13:26;15.10;72.80
74101;DHT22;62462;52.530;21.682;2022-09-09T07:15:52;15.10;72.60
74101;DHT22;62462;52.530;21.682;2022-09-09T07:18:21;15.00;72.70
74101;DHT22;62462;52.530;21.682;2022-09-09T07:20:54;15.00;72.60
74101;DHT22;62462;52.530;21.682;2022-09-09T07:23:20;15.10;72.40
74101;DHT22;62462;52.530;21.682;2022-09-09T07:25:46;15.10;72.50
74101;DHT22;62462;52.530;21.682;2022-09-09T07:28:13;15.10;72.90
74101;DHT22;62462;52.530;21.682;2022-09-09T07:30:40;15.00;73.00
74101;DHT22;62462;52.530;21.682;2022-09-09T07:33:06;15.00;73.10
74101;DHT22;62462;52.530;21.682;2022-09-09T07:35:32;15.00;73.60
74101;DHT22;62462;52.530;21.682;2022-09-09T07:38:00;15.00;73.30
74101;DHT22;62462;52.530;21.682;2022-09-09T07:40:26;15.00;73.80
74101;DHT22;62462;52.530;21.682;2022-09-09T07:42:51;15.00;73.60
74101;DHT22;62462;52.530;21.682;2022-09-09T07:45:17;15.00;73.40
74101;DHT22;62462;52.530;21.682;2022-09-09T07:47:43;15.10;73.10
74101;DHT22;62462;52.530;21.682;2022-09-09T07:50:09;15.10;73.40
74101;DHT22;62462;52.530;21.682;2022-09-09T07:52:35;15.10;73.40
74101;DHT22;62462;52.530;21.682;2022-09-09T07:55:02;15.10;73.10
74101;DHT22;62462;52.530;21.682;2022-09-09T07:57:29;15.00;73.80
74101;DHT22;62462;52.530;21.682;2022-09-09T08:00:03;15.00;74.00
74101;DHT22;62462;52.530;21.682;2022-09-09T08:02:29;15.00;74.40
74101;DHT22;62462;52.530;21.682;2022-09-09T08:04:55;14.90;74.40
74101;DHT22;62462;52.530;21.682;2022-09-09T08:07:22;14.90;74.60
74101;DHT22;62462;52.530;21.682;2022-09-09T08:09:48;14.90;74.70
74101;DHT22;62462;52.530;21.682;2022-09-09T08:12:15;14.90;74.50
74101;DHT22;62462;52.530;21.682;2022-09-09T08:14:41;15.00;74.30
74101;DHT22;62462;52.530;21.682;2022-09-09T08:17:07;15.00;74.00
74101;DHT22;62462;52.530;21.682;2022-09-09T08:19:33;15.00;74.00
74101;DHT22;62462;52.530;21.682;2022-09-09T08:22:02;15.00;74.00
74101;DHT22;62462;52.530;21.682;2022-09-09T08:24:28;15.00;74.10
74101;DHT22;62462;52.530;21.682;2022-09-09T08:26:54;15.00;74.40
74101;DHT22;62462;52.530;21.682;2022-09-09T08:29:22;15.00;74.40
74101;DHT22;62462;52.530;21.682;2022-09-09T08:31:52;15.00;74.40
74101;DHT22;62462;52.530;21.682;2022-09-09T08:34:20;15.00;74.20
74101;DHT22;62462;52.530;21.682;2022-09-09T08:36:48;15.00;74.80
74101;DHT22;62462;52.530;21.682;2022-09-09T08:39:16;15.00;74.40
74101;DHT22;62462;52.530;21.682;2022-09-09T09:22:52;13.10;85.50
74101;DHT22;62462;52.530;21.682;2022-09-09T09:25:23;14.70;78.50
74101;DHT22;62462;52.530;21.682;2022-09-09T09:28:01;14.80;77.50
74101;DHT22;62462;52.530;21.682;2022-09-09T09:30:36;14.90;76.70
74101;DHT22;62462;52.530;21.682;2022-09-09T09:33:31;15.00;76.30
74101;DHT22;62462;52.530;21.682;2022-09-09T09:35:58;15.00;76.20
74101;DHT22;62462;52.530;21.682;2022-09-09T09:38:27;15.00;76.00
74101;DHT22;62462;52.530;21.682;2022-09-09T09:40:58;15.00;75.70
74101;DHT22;62462;52.530;21.682;2022-09-09T09:43:27;15.00;75.70
74101;DHT22;62462;52.530;21.682;2022-09-09T09:45:54;15.00;75.90
74101;DHT22;62462;52.530;21.682;2022-09-09T09:48:19;15.00;75.90
74101;DHT22;62462;52.530;21.682;2022-09-09T09:50:58;14.90;76.10
74101;DHT22;62462;52.530;21.682;2022-09-09T09:53:32;14.80;76.20
74101;DHT22;62462;52.530;21.682;2022-09-09T09:56:02;14.80;76.60
74101;DHT22;62462;52.530;21.682;2022-09-09T09:58:47;14.70;76.90
74101;DHT22;62462;52.530;21.682;2022-09-09T10:01:27;14.80;77.10
74101;DHT22;62462;52.530;21.682;2022-09-09T10:04:20;14.80;77.20
74101;DHT22;62462;52.530;21.682;2022-09-09T10:06:45;14.80;77.20
74101;DHT22;62462;52.530;21.682;2022-09-09T10:09:23;14.80;77.20
74101;DHT22;62462;52.530;21.682;2022-09-09T10:23:16;14.90;77.50
74101;DHT22;62462;52.530;21.682;2022-09-09T10:26:10;14.90;77.20
74101;DHT22;62462;52.530;21.682;2022-09-09T10:40:15;15.00;77.40
74101;DHT22;62462;52.530;21.682;2022-09-09T10:42:45;15.00;77.30
74101;DHT22;62462;52.530;21.682;2022-09-09T10:53:24;15.00;78.60
74101;DHT22;62462;52.530;21.682;2022-09-09T10:56:09;14.90;78.40
74101;DHT22;62462;52.530;21.682;2022-09-09T11:01:32;15.00;78.90
74101;DHT22;62462;52.530;21.682;2022-09-09T11:04:10;15.00;78.70
74101;DHT22;62462;52.530;21.682;2022-09-09T11:06:46;15.00;79.20
74101;DHT22;62462;52.530;21.682;2022-09-09T11:09:20;15.00;79.10
74101;DHT22;62462;52.530;21.682;2022-09-09T11:11:54;15.00;79.50
74101;DHT22;62462;52.530;21.682;2022-09-09T11:17:02;15.00;79.10
74101;DHT22;62462;52.530;21.682;2022-09-09T11:19:36;15.10;79.10
74101;DHT22;62462;52.530;21.682;2022-09-09T11:24:46;15.10;78.90
74101;DHT22;62462;52.530;21.682;2022-09-09T11:30:05;15.20;79.00
74101;DHT22;62462;52.530;21.682;2022-09-09T11:38:28;15.20;78.60
74101;DHT22;62462;52.530;21.682;2022-09-09T11:41:01;15.20;78.80
74101;DHT22;62462;52.530;21.682;2022-09-09T11:46:05;15.00;79.50
74101;DHT22;62462;52.530;21.682;2022-09-09T11:51:13;15.00;79.30
74101;DHT22;62462;52.530;21.682;2022-09-09T11:54:01;15.00;79.30
74101;DHT22;62462;52.530;21.682;2022-09-09T11:59:21;15.00;79.60
74101;DHT22;62462;52.530;21.682;2022-09-09T12:02:27;15.00;79.50
74101;DHT22;62462;52.530;21.682;2022-09-09T12:05:08;15.10;79.60
74101;DHT22;62462;52.530;21.682;2022-09-09T12:07:50;15.10;79.20
74101;DHT22;62462;52.530;21.682;2022-09-09T12:10:32;15.10;79.30
74101;DHT22;62462;52.530;21.682;2022-09-09T12:13:20;15.00;79.10
74101;DHT22;62462;52.530;21.682;2022-09-09T12:15:56;15.00;79.50
74101;DHT22;62462;52.530;21.682;2022-09-09T12:18:25;15.00;79.40
74101;DHT22;62462;52.530;21.682;2022-09-09T12:20:58;15.00;79.60
74101;DHT22;62462;52.530;21.682;2022-09-09T12:23:57;15.00;79.30
74101;DHT22;62462;52.530;21.682;2022-09-09T12:26:57;15.00;79.30
74101;DHT22;62462;52.530;21.682;2022-09-09T12:32:16;15.00;79.50
74101;DHT22;62462;52.530;21.682;2022-09-09T12:35:11;15.00;79.90
74101;DHT22;62462;52.530;21.682;2022-09-09T12:40:25;14.90;79.90
74101;DHT22;62462;52.530;21.682;2022-09-09T12:56:07;15.00;79.00
74101;DHT22;62462;52.530;21.682;2022-09-09T12:58:36;15.20;79.00
74101;DHT22;62462;52.530;21.682;2022-09-09T13:01:04;15.20;78.70
74101;DHT22;62462;52.530;21.682;2022-09-09T13:03:31;15.20;78.30
74101;DHT22;62462;52.530;21.682;2022-09-09T13:06:09;15.20;78.30
74101;DHT22;62462;52.530;21.682;2022-09-09T13:08:36;15.20;78.00
74101;DHT22;62462;52.530;21.682;2022-09-09T13:11:08;15.20;77.80
74101;DHT22;62462;52.530;21.682;2022-09-09T13:13:36;15.20;78.00
74101;DHT22;62462;52.530;21.682;2022-09-09T13:16:29;15.10;78.20
74101;DHT22;62462;52.530;21.682;2022-09-09T13:19:00;15.10;78.30
74101;DHT22;62462;52.530;21.682;2022-09-09T13:24:42;15.20;78.40
74101;DHT22;62462;52.530;21.682;2022-09-09T13:29:55;15.20;78.60
74101;DHT22;62462;52.530;21.682;2022-09-09T13:32:22;15.20;78.40
74101;DHT22;62462;52.530;21.682;2022-09-09T13:35:22;15.20;78.20
74101;DHT22;62462;52.530;21.682;2022-09-09T13:37:50;15.20;78.30
74101;DHT22;62462;52.530;21.682;2022-09-09T13:40:21;15.20;78.70
74101;DHT22;62462;52.530;21.682;2022-09-09T13:42:57;15.10;78.70
74101;DHT22;62462;52.530;21.682;2022-09-09T13:45:25;15.00;79.00
74101;DHT22;62462;52.530;21.682;2022-09-09T13:47:53;15.00;79.50
74101;DHT22;62462;52.530;21.682;2022-09-09T13:50:30;15.00;79.50
74101;DHT22;62462;52.530;21.682;2022-09-09T13:52:57;15.00;79.40
74101;DHT22;62462;52.530;21.682;2022-09-09T13:55:29;15.00;79.40
74101;DHT22;62462;52.530;21.682;2022-09-09T13:58:00;15.00;79.50
74101;DHT22;62462;52.530;21.682;2022-09-09T14:00:30;15.00;79.30
74101;DHT22;62462;52.530;21.682;2022-09-09T14:02:56;15.10;79.30
74101;DHT22;62462;52.530;21.682;2022-09-09T14:05:23;15.10;78.90
74101;DHT22;62462;52.530;21.682;2022-09-09T14:07:49;15.20;78.80
74101;DHT22;62462;52.530;21.682;2022-09-09T14:10:16;15.10;78.80
74101;DHT22;62462;52.530;21.682;2022-09-09T14:12:42;15.10;78.70
74101;DHT22;62462;52.530;21.682;2022-09-09T14:15:11;15.20;78.70
74101;DHT22;62462;52.530;21.682;2022-09-09T14:17:37;15.20;78.60
74101;DHT22;62462;52.530;21.682;2022-09-09T14:20:07;15.20;78.60
74101;DHT22;62462;52.530;21.682;2022-09-09T14:22:35;15.20;78.70
74101;DHT22;62462;52.530;21.682;2022-09-09T14:25:02;15.20;78.50
74101;DHT22;62462;52.530;21.682;2022-09-09T14:27:28;15.20;78.50
74101;DHT22;62462;52.530;21.682;2022-09-09T14:29:55;15.30;78.50
74101;DHT22;62462;52.530;21.682;2022-09-09T14:32:21;15.30;78.40
74101;DHT22;62462;52.530;21.682;2022-09-09T14:34:47;15.30;78.30
74101;DHT22;62462;52.530;21.682;2022-09-09T14:37:15;15.20;78.20
74101;DHT22;62462;52.530;21.682;2022-09-09T14:39:42;15.20;78.30
74101;DHT22;62462;52.530;21.682;2022-09-09T14:42:10;15.20;78.40
74101;DHT22;62462;52.530;21.682;2022-09-09T14:44:38;15.20;78.40
74101;DHT22;62462;52.530;21.682;2022-09-09T14:47:07;15.20;78.20
74101;DHT22;62462;52.530;21.682;2022-09-09T14:49:34;15.20;78.30
74101;DHT22;62462;52.530;21.682;2022-09-09T14:52:00;15.20;78.10
74101;DHT22;62462;52.530;21.682;2022-09-09T14:54:26;15.20;78.20
74101;DHT22;62462;52.530;21.682;2022-09-09T14:56:52;15.20;78.40
74101;DHT22;62462;52.530;21.682;2022-09-09T14:59:18;15.10;78.60
74101;DHT22;62462;52.530;21.682;2022-09-09T15:01:44;15.20;78.50
74101;DHT22;62462;52.530;21.682;2022-09-09T15:04:12;15.10;78.60
74101;DHT22;62462;52.530;21.682;2022-09-09T15:06:39;15.10;78.40
74101;DHT22;62462;52.530;21.682;2022-09-09T15:09:08;15.20;78.70
74101;DHT22;62462;52.530;21.682;2022-09-09T15:11:36;15.10;78.30
74101;DHT22;62462;52.530;21.682;2022-09-09T15:14:06;15.20;78.30
74101;DHT22;62462;52.530;21.682;2022-09-09T15:16:32;15.20;78.40
74101;DHT22;62462;52.530;21.682;2022-09-09T15:19:00;15.20;78.60
74101;DHT22;62462;52.530;21.682;2022-09-09T15:21:28;15.10;78.60
74101;DHT22;62462;52.530;21.682;2022-09-09T15:23:55;15.10;78.90
74101;DHT22;62462;52.530;21.682;2022-09-09T15:26:21;15.10;78.90
74101;DHT22;62462;52.530;21.682;2022-09-09T15:28:47;15.10;78.70
74101;DHT22;62462;52.530;21.682;2022-09-09T15:31:22;15.20;78.50
74101;DHT22;62462;52.530;21.682;2022-09-09T15:34:26;15.20;78.50
74101;DHT22;62462;52.530;21.682;2022-09-09T15:36:45;15.30;78.70
74101;DHT22;62462;52.530;21.682;2022-09-09T15:39:15;15.30;78.30
74101;DHT22;62462;52.530;21.682;2022-09-09T15:41:43;15.30;78.50
74101;DHT22;62462;52.530;21.682;2022-09-09T15:44:10;15.30;78.40
74101;DHT22;62462;52.530;21.682;2022-09-09T15:46:43;15.30;78.70
74101;DHT22;62462;52.530;21.682;2022-09-09T15:51:41;15.20;78.70
74101;DHT22;62462;52.530;21.682;2022-09-09T15:54:10;15.20;78.70
74101;DHT22;62462;52.530;21.682;2022-09-09T15:56:37;15.20;78.80
74101;DHT22;62462;52.530;21.682;2022-09-09T15:59:03;15.20;78.80
74101;DHT22;62462;52.530;21.682;2022-09-09T16:01:30;15.20;79.00
74101;DHT22;62462;52.530;21.682;2022-09-09T16:03:57;15.20;79.10
74101;DHT22;62462;52.530;21.682;2022-09-09T16:06:24;15.20;79.50
74101;DHT22;62462;52.530;21.682;2022-09-09T16:08:53;15.20;78.90
74101;DHT22;62462;52.530;21.682;2022-09-09T16:11:22;15.20;78.80
74101;DHT22;62462;52.530;21.682;2022-09-09T16:13:49;15.20;78.90
74101;DHT22;62462;52.530;21.682;2022-09-09T16:16:17;15.20;78.80
74101;DHT22;62462;52.530;21.682;2022-09-09T16:18:48;15.20;78.90
74101;DHT22;62462;52.530;21.682;2022-09-09T16:21:30;15.20;78.90
74101;DHT22;62462;52.530;21.682;2022-09-09T16:23:58;15.20;78.80
74101;DHT22;62462;52.530;21.682;2022-09-09T16:26:32;15.20;78.60
74101;DHT22;62462;52.530;21.682;2022-09-09T16:29:00;15.30;78.60
74101;DHT22;62462;52.530;21.682;2022-09-09T16:31:29;15.30;78.70
74101;DHT22;62462;52.530;21.682;2022-09-09T16:33:55;15.20;78.80
74101;DHT22;62462;52.530;21.682;2022-09-09T16:36:27;15.20;78.80
74101;DHT22;62462;52.530;21.682;2022-09-09T16:38:57;15.20;79.10
74101;DHT22;62462;52.530;21.682;2022-09-09T16:41:30;15.20;78.80
74101;DHT22;62462;52.530;21.682;2022-09-09T16:44:00;15.20;79.00
74101;DHT22;62462;52.530;21.682;2022-09-09T16:46:29;15.20;78.80
74101;DHT22;62462;52.530;21.682;2022-09-09T16:49:00;15.30;78.60
74101;DHT22;62462;52.530;21.682;2022-09-09T16:51:32;15.20;78.70
74101;DHT22;62462;52.530;21.682;2022-09-09T16:54:00;15.20;78.90
74101;DHT22;62462;52.530;21.682;2022-09-09T16:56:27;15.10;79.20
74101;DHT22;62462;52.530;21.682;2022-09-09T16:59:05;15.10;79.20
74101;DHT22;62462;52.530;21.682;2022-09-09T17:01:33;15.20;79.10
74101;DHT22;62462;52.530;21.682;2022-09-09T17:04:07;15.20;79.00
74101;DHT22;62462;52.530;21.682;2022-09-09T17:06:34;15.20;79.10
74101;DHT22;62462;52.530;21.682;2022-09-09T17:09:11;15.20;78.70
74101;DHT22;62462;52.530;21.682;2022-09-09T17:11:38;15.20;79.10
74101;DHT22;62462;52.530;21.682;2022-09-09T17:14:06;15.20;78.80
74101;DHT22;62462;52.530;21.682;2022-09-09T17:16:33;15.20;79.00
74101;DHT22;62462;52.530;21.682;2022-09-09T17:19:02;15.10;79.10
74101;DHT22;62462;52.530;21.682;2022-09-09T17:21:45;15.10;79.20
74101;DHT22;62462;52.530;21.682;2022-09-09T17:24:12;15.10;79.30
74101;DHT22;62462;52.530;21.682;2022-09-09T17:26:40;15.10;79.30
74101;DHT22;62462;52.530;21.682;2022-09-09T17:29:06;15.10;79.10
74101;DHT22;62462;52.530;21.682;2022-09-09T17:31:32;15.10;79.00
74101;DHT22;62462;52.530;21.682;2022-09-09T17:33:59;15.20;78.90
74101;DHT22;62462;52.530;21.682;2022-09-09T17:36:29;15.20;78.80
74101;DHT22;62462;52.530;21.682;2022-09-09T17:38:56;15.20;78.90
74101;DHT22;62462;52.530;21.682;2022-09-09T17:41:24;15.20;78.90
74101;DHT22;62462;52.530;21.682;2022-09-09T17:43:50;15.10;79.00
74101;DHT22;62462;52.530;21.682;2022-09-09T17:46:19;15.20;79.00
74101;DHT22;62462;52.530;21.682;2022-09-09T17:48:47;15.10;79.20
74101;DHT22;62462;52.530;21.682;2022-09-09T17:51:16;15.00;79.40
74101;DHT22;62462;52.530;21.682;2022-09-09T17:53:46;15.00;79.40
74101;DHT22;62462;52.530;21.682;2022-09-09T17:56:15;15.00;79.30
74101;DHT22;62462;52.530;21.682;2022-09-09T17:58:49;15.10;79.30
74101;DHT22;62462;52.530;21.682;2022-09-09T18:01:23;15.00;79.40
74101;DHT22;62462;52.530;21.682;2022-09-09T18:03:49;15.00;79.30
74101;DHT22;62462;52.530;21.682;2022-09-09T18:06:21;15.00;79.50
74101;DHT22;62462;52.530;21.682;2022-09-09T18:08:51;15.00;79.30
74101;DHT22;62462;52.530;21.682;2022-09-09T18:11:21;15.00;79.00
74101;DHT22;62462;52.530;21.682;2022-09-09T18:13:56;15.10;79.00
74101;DHT22;62462;52.530;21.682;2022-09-09T18:16:29;15.10;78.80
74101;DHT22;62462;52.530;21.682;2022-09-09T18:18:56;15.10;78.70
74101;DHT22;62462;52.530;21.682;2022-09-09T18:21:25;15.10;78.60
74101;DHT22;62462;52.530;21.682;2022-09-09T18:23:53;15.10;78.70
74101;DHT22;62462;52.530;21.682;2022-09-09T18:26:21;15.10;78.90
74101;DHT22;62462;52.530;21.682;2022-09-09T18:28:51;15.10;78.90